createdAt,value
2019-05-14T00:03:25.241Z,6.60
2019-05-14T00:06:18.327Z,6.70
2019-05-14T00:11:51.286Z,6.50
2019-05-14T00:14:39.214Z,6.50
2019-05-14T00:17:01.672Z,6.00
2019-05-14T00:22:28.234Z,6.60
2019-05-14T00:25:02.847Z,6.40
2019-05-14T00:27:36.243Z,6.30
2019-05-14T00:30:11.481Z,6.20
2019-05-14T00:32:52.074Z,5.30
2019-05-14T00:38:51.427Z,6.00
2019-05-14T00:47:34.369Z,6.20
2019-05-14T00:50:35.796Z,6.10
2019-05-14T00:53:41.955Z,6.10
2019-05-14T00:56:41.907Z,6.60
2019-05-14T01:02:56.338Z,5.90
2019-05-14T01:05:45.254Z,5.70
2019-05-14T01:08:33.863Z,5.90
2019-05-14T01:11:09.012Z,6.40
2019-05-14T01:16:42.266Z,6.10
2019-05-14T01:19:16.651Z,6.10
2019-05-14T01:22:12.947Z,6.10
2019-05-14T01:24:58.595Z,6.00
2019-05-14T01:27:43.131Z,6.00
2019-05-14T01:30:32.306Z,5.90
2019-05-14T01:33:11.795Z,5.70
2019-05-14T01:36:04.683Z,5.70
2019-05-14T01:42:13.494Z,4.50
2019-05-14T01:44:53.343Z,5.30
2019-05-14T01:47:55.232Z,3.70
2019-05-14T01:53:52.124Z,5.10
2019-05-14T01:56:36.337Z,5.00
2019-05-14T01:59:06.455Z,4.70
2019-05-14T02:01:51.539Z,4.90
2019-05-14T02:07:39.155Z,4.70
2019-05-14T02:10:33.363Z,4.70
2019-05-14T02:13:35.024Z,4.60
2019-05-14T02:19:13.169Z,4.20
2019-05-14T02:22:07.516Z,4.30
2019-05-14T02:25:11.879Z,3.50
2019-05-14T02:27:54.923Z,4.30
2019-05-14T02:30:55.934Z,4.30
2019-05-14T02:33:31.073Z,4.20
2019-05-14T02:36:25.754Z,4.20
2019-05-14T02:39:15.159Z,4.20
2019-05-14T02:45:34.650Z,4.10
2019-05-14T02:48:23.203Z,4.10
2019-05-14T02:53:49.800Z,4.00
2019-05-14T02:56:25.488Z,4.00
2019-05-14T02:59:15.731Z,3.90
2019-05-14T03:01:59.138Z,3.90
2019-05-14T03:04:30.332Z,3.80
2019-05-14T03:07:19.569Z,3.70
2019-05-14T03:09:59.339Z,3.70
2019-05-14T03:12:39.299Z,3.80
2019-05-14T03:15:24.115Z,3.90
2019-05-14T03:17:53.724Z,4.10
2019-05-14T03:20:23.235Z,5.10
2019-05-14T03:23:14.182Z,4.40
2019-05-14T03:25:45.587Z,3.60
2019-05-14T03:28:24.191Z,4.50
2019-05-14T03:31:03.003Z,5.90
2019-05-14T03:33:43.613Z,4.80
2019-05-14T03:39:42.119Z,4.80
2019-05-14T03:42:19.220Z,4.80
2019-05-14T03:45:00.725Z,4.90
2019-05-14T03:48:10.552Z,4.90
2019-05-14T03:54:05.629Z,6.40
2019-05-14T03:56:49.866Z,4.90
2019-05-14T03:59:23.630Z,4.20
2019-05-14T04:01:54.736Z,5.60
2019-05-14T04:04:32.336Z,4.70
2019-05-14T04:10:59.116Z,5.00
2019-05-14T04:13:54.203Z,5.00
2019-05-14T04:16:39.619Z,4.30
2019-05-14T04:23:28.693Z,4.90
2019-05-14T04:27:29.818Z,5.20
2019-05-14T04:37:49.360Z,5.30
2019-05-14T04:40:49.184Z,5.30
2019-05-14T04:47:22.831Z,6.40
2019-05-14T04:50:03.152Z,5.70
2019-05-14T04:53:02.528Z,5.90
2019-05-14T04:55:43.528Z,5.90
2019-05-14T04:58:43.723Z,6.00
2019-05-14T05:01:44.889Z,6.10
2019-05-14T05:04:51.149Z,6.20
2019-05-14T05:08:21.243Z,6.30
2019-05-14T05:11:34.778Z,6.50
2019-05-14T05:14:34.785Z,6.60
2019-05-14T05:20:39.786Z,6.90
2019-05-14T05:26:28.623Z,7.30
2019-05-14T05:29:06.900Z,7.40
2019-05-14T05:32:03.589Z,8.50
2019-05-14T05:35:04.671Z,7.60
2019-05-14T05:38:25.683Z,7.80
2019-05-14T05:41:42.790Z,8.90
2019-05-14T05:44:51.932Z,8.10
2019-05-14T05:48:03.720Z,8.40
2019-05-14T05:50:49.755Z,8.60
2019-05-14T06:01:42.865Z,8.80
2019-05-14T06:04:55.929Z,8.80
2019-05-14T06:11:35.314Z,9.80
2019-05-14T06:14:34.413Z,9.70
2019-05-14T06:17:33.241Z,9.70
2019-05-14T06:23:52.387Z,8.90
2019-05-14T06:26:42.897Z,8.90
2019-05-14T06:29:31.277Z,8.90
2019-05-14T06:32:29.106Z,9.00
2019-05-14T06:35:35.965Z,9.10
2019-05-14T06:38:29.654Z,9.10
2019-05-14T06:42:02.232Z,9.20
2019-05-14T06:45:00.759Z,9.20
2019-05-14T06:47:42.350Z,9.20
2019-05-14T06:50:28.793Z,9.80
2019-05-14T06:53:12.718Z,9.50
2019-05-14T06:56:21.737Z,9.60
2019-05-14T07:05:38.801Z,9.90
2019-05-14T07:08:18.630Z,10.80
2019-05-14T07:11:12.733Z,9.90
2019-05-14T07:13:52.767Z,10.00
2019-05-14T07:16:28.910Z,10.40
2019-05-14T07:19:19.526Z,10.20
2019-05-14T07:21:50.727Z,10.10
2019-05-14T07:24:40.798Z,10.40
2019-05-14T07:27:12.737Z,10.40
2019-05-14T07:29:43.763Z,10.40
2019-05-14T07:32:13.254Z,10.50
2019-05-14T07:34:53.491Z,11.90
2019-05-14T07:37:34.721Z,10.60
2019-05-14T07:40:58.316Z,10.50
2019-05-14T07:43:49.099Z,10.80
2019-05-14T07:46:35.799Z,10.80
2019-05-14T07:49:20.690Z,11.00
2019-05-14T07:52:45.309Z,11.00
2019-05-14T07:55:49.050Z,11.20
2019-05-14T07:58:31.337Z,11.40
2019-05-14T08:01:20.969Z,11.40
2019-05-14T08:03:59.926Z,11.40
2019-05-14T08:06:39.206Z,11.30
2019-05-14T08:09:18.942Z,11.40
2019-05-14T08:12:09.366Z,11.40
2019-05-14T08:15:10.192Z,11.60
2019-05-14T08:17:45.226Z,12.30
2019-05-14T08:20:23.376Z,12.60
2019-05-14T08:22:53.314Z,14.00
2019-05-14T08:25:22.827Z,15.40
2019-05-14T08:27:54.861Z,15.60
2019-05-14T08:30:23.680Z,16.00
2019-05-14T08:33:02.891Z,16.20
2019-05-14T08:36:00.059Z,15.00
2019-05-14T08:38:38.245Z,15.50
2019-05-14T08:41:31.987Z,16.40
2019-05-14T08:44:16.319Z,17.00
2019-05-14T08:46:48.179Z,19.20
2019-05-14T08:49:37.194Z,18.80
2019-05-14T08:52:11.151Z,17.10
2019-05-14T08:54:50.542Z,16.30
2019-05-14T08:57:28.838Z,17.50
2019-05-14T09:00:04.977Z,17.10
2019-05-14T09:02:39.239Z,17.90
2019-05-14T09:05:18.191Z,18.40
2019-05-14T09:08:19.143Z,19.90
2019-05-14T09:10:52.644Z,20.60
2019-05-14T09:13:32.630Z,20.80
2019-05-14T09:16:12.939Z,19.90
2019-05-14T09:18:52.174Z,19.50
2019-05-14T09:21:24.287Z,19.80
2019-05-14T09:23:58.699Z,20.10
2019-05-14T09:26:39.073Z,20.40
2019-05-14T09:29:19.452Z,20.80
2019-05-14T09:35:09.676Z,19.00
2019-05-14T09:38:03.192Z,16.70
2019-05-14T09:40:43.296Z,15.70
2019-05-14T09:43:48.619Z,15.30
2019-05-14T09:46:54.983Z,16.60
2019-05-14T09:49:39.116Z,16.90
2019-05-14T09:52:30.863Z,18.10
2019-05-14T09:55:12.577Z,19.80
2019-05-14T09:58:03.776Z,20.10
2019-05-14T10:00:42.569Z,20.80
2019-05-14T10:07:08.823Z,19.80
2019-05-14T10:09:49.193Z,20.20
2019-05-14T10:12:23.401Z,20.10
2019-05-14T10:15:02.259Z,22.70
2019-05-14T10:17:52.777Z,22.30
2019-05-14T10:20:41.095Z,21.60
2019-05-14T10:23:09.235Z,21.20
2019-05-14T10:26:12.388Z,20.70
2019-05-14T10:32:11.040Z,20.60
2019-05-14T10:35:15.813Z,20.30
2019-05-14T10:37:54.349Z,19.20
2019-05-14T10:40:31.624Z,19.00
2019-05-14T10:43:04.952Z,18.50
2019-05-14T10:46:01.097Z,17.00
2019-05-14T10:48:40.662Z,16.10
2019-05-14T10:51:34.160Z,16.00
2019-05-14T10:54:29.249Z,18.70
2019-05-14T10:57:18.323Z,21.20
2019-05-14T10:59:59.162Z,21.50
2019-05-14T11:02:56.465Z,20.70
2019-05-14T11:05:35.516Z,22.10
2019-05-14T11:08:11.683Z,20.40
2019-05-14T11:10:54.319Z,19.30
2019-05-14T11:13:39.389Z,18.30
2019-05-14T11:16:10.015Z,18.30
2019-05-14T11:18:42.792Z,17.50
2019-05-14T11:21:30.414Z,18.40
2019-05-14T11:24:03.936Z,19.10
2019-05-14T11:26:32.734Z,21.00
2019-05-14T11:29:03.602Z,22.20
2019-05-14T11:34:48.833Z,19.80
2019-05-14T11:37:28.177Z,20.60
2019-05-14T11:40:33.664Z,19.60
2019-05-14T11:43:28.693Z,18.80
2019-05-14T11:46:00.761Z,22.30
2019-05-14T11:49:08.847Z,22.50
2019-05-14T11:51:59.392Z,18.30
2019-05-14T11:54:24.660Z,19.00
2019-05-14T11:56:58.907Z,20.00
2019-05-14T11:59:43.320Z,21.40
2019-05-14T12:02:38.527Z,21.40
2019-05-14T12:05:18.735Z,21.60
2019-05-14T12:07:54.910Z,22.30
2019-05-14T12:10:31.450Z,23.20
2019-05-14T12:13:01.663Z,23.70
2019-05-14T12:15:38.836Z,24.40
2019-05-14T12:18:10.535Z,24.30
2019-05-14T12:20:49.707Z,22.10
2019-05-14T12:23:39.276Z,21.80
2019-05-14T12:26:09.867Z,22.50
2019-05-14T12:28:49.360Z,23.80
2019-05-14T12:31:50.344Z,22.80
2019-05-14T12:35:00.401Z,23.40
2019-05-14T12:37:32.435Z,23.10
2019-05-14T12:40:09.188Z,22.60
2019-05-14T12:42:49.850Z,22.20
2019-05-14T12:45:59.293Z,22.50
2019-05-14T12:48:39.611Z,21.60
2019-05-14T12:51:09.302Z,21.90
2019-05-14T12:53:40.952Z,23.80
2019-05-14T12:56:20.988Z,22.90
2019-05-14T12:58:58.232Z,23.00
2019-05-14T13:02:09.999Z,22.40
2019-05-14T13:05:02.663Z,23.00
2019-05-14T13:07:59.130Z,21.80
2019-05-14T13:10:32.520Z,21.80
2019-05-14T13:13:43.714Z,21.30
2019-05-14T13:16:48.813Z,22.10
2019-05-14T13:19:25.659Z,22.30
2019-05-14T13:22:15.108Z,22.90
2019-05-14T13:31:04.499Z,22.20
2019-05-14T13:33:50.982Z,21.90
2019-05-14T13:36:44.899Z,23.10
2019-05-14T13:42:50.446Z,24.00
2019-05-14T13:45:24.742Z,23.90
2019-05-14T13:48:22.142Z,23.40
2019-05-14T13:51:48.849Z,23.10
2019-05-14T13:54:31.662Z,22.80
2019-05-14T13:57:10.031Z,23.70
2019-05-14T13:59:46.018Z,23.70
2019-05-14T14:02:18.888Z,24.10
2019-05-14T14:04:58.963Z,23.30
2019-05-14T14:07:32.011Z,22.80
2019-05-14T14:10:04.965Z,24.50
2019-05-14T14:16:28.533Z,23.20
2019-05-14T14:19:28.180Z,23.60
2019-05-14T14:22:20.887Z,24.00
2019-05-14T14:25:23.597Z,21.90
2019-05-14T14:28:20.553Z,23.90
2019-05-14T14:31:11.060Z,24.20
2019-05-14T14:33:52.247Z,23.80
2019-05-14T14:40:21.334Z,23.90
2019-05-14T14:42:55.492Z,23.40
2019-05-14T14:46:13.894Z,22.20
2019-05-14T14:48:49.675Z,23.90
2019-05-14T14:51:53.297Z,24.20
2019-05-14T14:54:33.064Z,23.80
2019-05-14T14:57:22.089Z,23.40
2019-05-14T14:59:57.879Z,23.00
2019-05-14T15:02:49.378Z,23.00
2019-05-14T15:05:29.757Z,21.60
2019-05-14T15:08:35.446Z,21.60
2019-05-14T15:11:30.145Z,21.90
2019-05-14T15:14:08.469Z,20.60
2019-05-14T15:17:03.263Z,22.90
2019-05-14T15:20:41.395Z,23.50
2019-05-14T15:23:28.472Z,23.30
2019-05-14T15:26:02.448Z,23.00
2019-05-14T15:28:50.424Z,22.00
2019-05-14T15:34:38.820Z,21.10
2019-05-14T15:37:13.411Z,22.80
2019-05-14T15:45:42.879Z,22.80
2019-05-14T15:48:26.904Z,23.60
2019-05-14T15:51:14.638Z,22.70
2019-05-14T15:54:34.647Z,22.30
2019-05-14T15:57:48.096Z,20.80
2019-05-14T16:00:52.621Z,20.80
2019-05-14T16:03:24.609Z,21.60
2019-05-14T16:06:22.047Z,23.20
2019-05-14T16:08:52.802Z,24.00
2019-05-14T16:11:34.958Z,22.60
2019-05-14T16:14:10.324Z,20.60
2019-05-14T16:16:43.128Z,19.70
2019-05-14T16:19:12.552Z,19.40
2019-05-14T16:22:00.023Z,19.00
2019-05-14T16:24:55.738Z,19.30
2019-05-14T16:27:15.619Z,19.30
2019-05-14T16:30:45.586Z,20.80
2019-05-14T16:37:40.988Z,22.60
2019-05-14T16:40:49.387Z,22.20
2019-05-14T16:43:43.886Z,19.60
2019-05-14T16:46:18.586Z,19.20
2019-05-14T16:49:13.538Z,18.20
2019-05-14T16:52:02.586Z,17.70
2019-05-14T16:55:09.010Z,17.70
2019-05-14T16:57:39.393Z,16.60
2019-05-14T17:04:09.410Z,15.10
2019-05-14T17:07:04.370Z,14.70
2019-05-14T17:09:49.857Z,14.50
2019-05-14T17:12:22.796Z,14.40
2019-05-14T17:18:33.040Z,15.70
2019-05-14T17:21:04.311Z,14.10
2019-05-14T17:24:24.726Z,14.50
2019-05-14T17:27:00.844Z,14.50
2019-05-14T17:33:11.768Z,17.60
2019-05-14T17:35:58.951Z,15.60
2019-05-14T17:46:33.230Z,12.70
2019-05-14T17:52:30.155Z,12.60
2019-05-14T17:55:04.554Z,13.30
2019-05-14T18:01:18.119Z,13.00
2019-05-14T18:04:08.904Z,14.40
2019-05-14T18:07:08.381Z,12.60
2019-05-14T18:09:44.144Z,12.20
2019-05-14T18:12:31.752Z,11.00
2019-05-14T18:15:19.824Z,12.30
2019-05-14T18:18:11.199Z,12.10
2019-05-14T18:20:50.818Z,12.40
2019-05-14T18:29:59.177Z,11.70
2019-05-14T18:33:08.520Z,11.60
2019-05-14T18:39:10.627Z,11.00
2019-05-14T18:42:20.289Z,10.90
2019-05-14T18:45:25.237Z,11.00
2019-05-14T18:48:03.057Z,12.20
2019-05-14T18:54:52.253Z,10.70
2019-05-14T19:00:50.246Z,10.20
2019-05-14T19:03:43.028Z,9.90
2019-05-14T19:07:01.865Z,9.60
2019-05-14T19:13:57.111Z,9.40
2019-05-14T19:17:01.781Z,9.30
2019-05-14T19:20:20.497Z,9.10
2019-05-14T19:27:04.524Z,8.50
2019-05-14T19:30:38.642Z,9.70
2019-05-14T19:50:43.572Z,7.90
2019-05-14T19:57:51.162Z,6.60
2019-05-14T20:04:37.308Z,6.30
2019-05-14T20:11:13.778Z,8.20
2019-05-14T20:17:59.651Z,7.30
2019-05-14T20:24:22.243Z,7.20
2019-05-14T20:36:59.035Z,7.20
2019-05-14T20:39:39.190Z,6.90
2019-05-14T20:46:38.210Z,6.30
2019-05-14T20:56:29.128Z,7.00
2019-05-14T21:02:50.114Z,6.40
2019-05-14T21:19:10.400Z,6.40
2019-05-14T21:32:42.260Z,6.00
2019-05-14T21:35:48.514Z,5.70
2019-05-14T21:45:49.759Z,5.40
2019-05-14T21:51:51.688Z,5.90
2019-05-14T21:54:59.886Z,5.10
2019-05-14T21:58:13.935Z,5.00
2019-05-14T22:10:48.878Z,4.50
2019-05-14T22:23:48.901Z,4.70
2019-05-14T22:26:48.679Z,5.20
2019-05-14T22:29:25.421Z,4.80
2019-05-14T22:32:38.278Z,4.60
2019-05-14T22:39:09.965Z,5.60
2019-05-14T22:42:19.554Z,4.50
2019-05-14T22:45:28.961Z,4.50
2019-05-14T22:51:38.378Z,4.50
2019-05-14T23:04:33.840Z,4.70
2019-05-14T23:08:08.797Z,4.00
2019-05-14T23:14:30.593Z,4.50
2019-05-14T23:17:55.410Z,4.50
2019-05-14T23:21:10.209Z,4.40
2019-05-14T23:24:32.050Z,4.50
2019-05-14T23:27:18.801Z,4.40
2019-05-14T23:30:31.190Z,4.40
2019-05-14T23:33:39.370Z,4.30
2019-05-14T23:42:50.523Z,4.50
2019-05-14T23:45:38.751Z,4.50
2019-05-14T23:48:26.576Z,5.40
2019-05-14T23:51:02.504Z,4.10
2019-05-14T23:54:12.502Z,3.70
2019-05-14T23:57:11.687Z,4.00
